Time;durP1;ratioP1;P1;durP2;ratioP2;P2;SDS_P1;SDS_P2;PMS_P1;PMS_P2;Temp;Humidity;BMP_temperature;BMP_pressure;BME280_temperature;BME280_humidity;BME280_pressure;Samples;Min_cycle;Max_cycle;Signal;HPM_P1;HPM_P2
2023/08/12 00:01:09;;;;;;;7.65;4.65;;;;;22.50;98808.00;;;;5072135;28;20040;-63
2023/08/12 00:03:36;;;;;;;7.40;4.60;;;;;22.50;98806.00;;;;5054393;28;20071;-64
2023/08/12 00:06:05;;;;;;;7.15;4.55;;;;;22.60;98816.00;;;;5072433;28;20041;-64
2023/08/12 00:08:31;;;;;;;9.63;4.80;;;;;22.70;98802.00;;;;5073808;28;20047;-63
2023/08/12 00:10:58;;;;;;;6.53;4.63;;;;;22.70;98801.00;;;;5037320;28;20513;-63
2023/08/12 00:13:25;;;;;;;9.30;4.88;;;;;22.80;98798.00;;;;5054353;28;20489;-64
2023/08/12 00:15:52;;;;;;;4.68;3.88;;;;;22.80;98791.00;;;;5072260;28;20067;-63
2023/08/12 00:18:18;;;;;;;6.82;4.78;;;;;22.90;98794.00;;;;5072357;28;20509;-64
2023/08/12 00:20:45;;;;;;;6.47;4.32;;;;;22.90;98798.00;;;;5054282;28;20111;-64
2023/08/12 00:23:12;;;;;;;6.38;4.60;;;;;23.00;98799.00;;;;5072348;28;20048;-64
2023/08/12 00:25:39;;;;;;;5.32;4.82;;;;;22.80;98806.00;;;;5072378;28;20045;-64
2023/08/12 00:28:05;;;;;;;5.38;4.15;;;;;22.70;98793.00;;;;5072289;28;20045;-64
2023/08/12 00:30:32;;;;;;;5.85;4.70;;;;;22.60;98786.00;;;;5072228;28;20501;-64
2023/08/12 00:32:58;;;;;;;5.43;4.47;;;;;22.60;98788.00;;;;5054440;28;20044;-64
2023/08/12 00:35:25;;;;;;;8.30;4.80;;;;;22.70;98793.00;;;;5072950;28;20044;-64
2023/08/12 00:37:52;;;;;;;6.70;5.00;;;;;22.80;98784.00;;;;5072331;28;20119;-62
2023/08/12 00:40:18;;;;;;;6.40;4.63;;;;;22.80;98783.00;;;;5071804;28;20052;-64
2023/08/12 00:42:46;;;;;;;9.40;4.60;;;;;22.80;98780.00;;;;5054117;28;20052;-64
2023/08/12 00:45:13;;;;;;;7.15;4.57;;;;;22.70;98782.00;;;;5072443;28;20040;-64
2023/08/12 00:47:41;;;;;;;8.07;4.60;;;;;22.80;98791.00;;;;5072382;28;20044;-62
2023/08/12 00:50:10;;;;;;;8.57;4.72;;;;;22.90;98798.00;;;;5072213;28;20063;-62
2023/08/12 00:52:37;;;;;;;5.50;4.47;;;;;22.90;98808.00;;;;5037961;28;20058;-63
2023/08/12 00:55:04;;;;;;;5.25;4.03;;;;;22.90;98810.00;;;;5072247;28;20402;-62
2023/08/12 00:57:31;;;;;;;6.97;4.53;;;;;22.80;98809.00;;;;5054244;28;20143;-62
2023/08/12 00:59:58;;;;;;;9.07;5.22;;;;;22.80;98824.00;;;;5072137;28;20055;-62
2023/08/12 01:02:25;;;;;;;8.20;4.53;;;;;22.70;98821.00;;;;5072212;28;20064;-62
2023/08/12 01:04:52;;;;;;;6.57;4.75;;;;;22.70;98835.00;;;;5071702;28;20044;-62
2023/08/12 01:07:19;;;;;;;6.28;4.88;;;;;22.70;98836.00;;;;5054214;28;20131;-62
2023/08/12 01:09:47;;;;;;;6.25;4.80;;;;;22.80;98832.00;;;;5054647;28;20139;-62
2023/08/12 01:12:28;;;;;;;5.78;5.10;;;;;22.70;98829.00;;;;5054698;28;20524;-62
2023/08/12 01:15:04;;;;;;;7.55;4.65;;;;;22.70;98837.00;;;;5038080;28;20527;-62
2023/08/12 01:17:33;;;;;;;6.70;4.60;;;;;22.80;98836.00;;;;5072625;28;20040;-62
2023/08/12 01:20:08;;;;;;;8.68;4.82;;;;;22.90;98832.00;;;;5055286;28;20560;-63
2023/08/12 01:22:39;;;;;;;9.32;5.10;;;;;22.80;98841.00;;;;5056432;28;20517;-62
2023/08/12 01:25:06;;;;;;;5.38;4.78;;;;;22.90;98838.00;;;;5077161;28;20040;-62
2023/08/12 01:27:35;;;;;;;5.07;4.57;;;;;22.90;98832.00;;;;5077111;28;20075;-64
2023/08/12 01:30:05;;;;;;;8.35;5.13;;;;;22.80;98836.00;;;;5058867;28;20075;-62
2023/08/12 01:32:45;;;;;;;8.80;4.90;;;;;22.80;98842.00;;;;5057672;28;20044;-62
2023/08/12 01:35:19;;;;;;;8.15;5.25;;;;;22.80;98844.00;;;;5075392;28;20072;-62
2023/08/12 01:37:48;;;;;;;8.82;5.20;;;;;22.70;98849.00;;;;5075434;28;20044;-61
2023/08/12 01:40:16;;;;;;;7.47;5.00;;;;;22.70;98848.00;;;;5056823;28;20078;-61
2023/08/12 01:42:43;;;;;;;9.02;6.55;;;;;22.70;98838.00;;;;5075193;28;20402;-62
2023/08/12 01:45:10;;;;;;;9.48;5.30;;;;;22.60;98839.00;;;;5074966;28;20037;-61
2023/08/12 01:47:37;;;;;;;8.10;5.38;;;;;22.60;98843.00;;;;5074948;28;20119;-62
2023/08/12 01:50:06;;;;;;;9.68;5.50;;;;;22.60;98836.00;;;;5074487;28;20043;-62
2023/08/12 01:52:32;;;;;;;8.02;5.53;;;;;22.60;98849.00;;;;5074671;28;20086;-62
2023/08/12 01:54:59;;;;;;;11.20;5.88;;;;;22.60;98849.00;;;;5056621;28;20051;-62
2023/08/12 01:57:26;;;;;;;9.93;5.78;;;;;22.60;98850.00;;;;5074651;28;20052;-62
2023/08/12 01:59:52;;;;;;;8.88;6.38;;;;;22.60;98860.00;;;;5056448;28;20070;-62
2023/08/12 02:02:19;;;;;;;12.65;7.00;;;;;22.60;98853.00;;;;5074559;28;20036;-61
2023/08/12 02:04:45;;;;;;;12.23;7.38;;;;;22.60;98869.00;;;;5056499;28;20055;-62
2023/08/12 02:07:12;;;;;;;8.02;7.07;;;;;22.50;98872.00;;;;5056562;28;20497;-62
2023/08/12 02:09:39;;;;;;;11.07;7.13;;;;;22.50;98874.00;;;;5074200;28;20556;-62
2023/08/12 02:12:06;;;;;;;9.43;6.25;;;;;22.50;98865.00;;;;5074251;28;20061;-62
2023/08/12 02:14:33;;;;;;;10.02;7.25;;;;;22.50;98857.00;;;;5056334;28;20052;-62
2023/08/12 02:16:59;;;;;;;8.27;7.20;;;;;22.40;98864.00;;;;5056463;28;20048;-62
2023/08/12 02:19:26;;;;;;;10.00;6.70;;;;;22.30;98856.00;;;;5056344;28;20048;-62
2023/08/12 02:21:53;;;;;;;10.63;6.07;;;;;22.10;98853.00;;;;5039566;28;20418;-62
2023/08/12 02:24:19;;;;;;;9.95;5.65;;;;;22.20;98847.00;;;;5056238;28;20049;-62
2023/08/12 02:26:46;;;;;;;9.95;6.38;;;;;22.30;98830.00;;;;5056396;28;20428;-63
2023/08/12 02:29:13;;;;;;;7.40;6.53;;;;;22.40;98813.00;;;;5055949;28;20033;-63
2023/08/12 02:31:39;;;;;;;7.78;6.20;;;;;22.40;98816.00;;;;5056134;28;20044;-63
2023/08/12 02:34:06;;;;;;;8.70;6.20;;;;;22.40;98797.00;;;;5073203;28;20448;-61
2023/08/12 02:36:33;;;;;;;7.22;6.50;;;;;22.20;98793.00;;;;5073959;28;20455;-61
2023/08/12 02:38:59;;;;;;;8.85;6.22;;;;;22.10;98794.00;;;;5039685;28;20071;-61
2023/08/12 02:41:26;;;;;;;9.13;7.15;;;;;22.20;98793.00;;;;5055502;28;20045;-63
2023/08/12 02:43:52;;;;;;;9.45;7.15;;;;;22.10;98792.00;;;;5039131;28;20441;-63
2023/08/12 02:46:19;;;;;;;8.35;7.00;;;;;22.10;98792.00;;;;5039419;28;20048;-61
2023/08/12 02:48:47;;;;;;;9.85;7.30;;;;;22.10;98794.00;;;;5055796;28;20055;-61
2023/08/12 02:51:14;;;;;;;9.38;7.20;;;;;22.10;98798.00;;;;5055404;28;20036;-61
2023/08/12 02:53:40;;;;;;;10.55;7.00;;;;;22.10;98799.00;;;;5055818;28;20044;-61
2023/08/12 02:56:07;;;;;;;10.38;6.75;;;;;22.20;98794.00;;;;5055767;28;20512;-61
2023/08/12 02:58:34;;;;;;;8.48;6.72;;;;;22.30;98803.00;;;;5055733;28;20090;-63
2023/08/12 03:01:01;;;;;;;12.15;7.25;;;;;22.40;98795.00;;;;5055481;28;20079;-61
2023/08/12 03:03:27;;;;;;;9.90;6.88;;;;;22.40;98794.00;;;;5055218;28;20093;-62
2023/08/12 03:05:54;;;;;;;9.15;6.55;;;;;22.40;98798.00;;;;5055554;28;20045;-62
2023/08/12 03:08:20;;;;;;;8.18;6.90;;;;;22.30;98799.00;;;;5039109;28;20143;-62
2023/08/12 03:10:48;;;;;;;10.77;7.22;;;;;22.00;98773.00;;;;5072920;28;20040;-62
2023/08/12 03:13:16;;;;;;;10.95;7.47;;;;;21.80;98769.00;;;;5055905;28;20036;-62
2023/08/12 03:15:42;;;;;;;13.15;8.25;;;;;21.70;98777.00;;;;5054992;28;20074;-61
2023/08/12 03:18:09;;;;;;;9.25;7.13;;;;;21.80;98780.00;;;;5073032;28;20045;-62
2023/08/12 03:20:37;;;;;;;11.23;7.20;;;;;21.80;98770.00;;;;5038501;28;20079;-62
2023/08/12 03:23:04;;;;;;;9.57;7.68;;;;;21.80;98773.00;;;;5038425;28;20044;-62
2023/08/12 03:25:31;;;;;;;9.90;7.65;;;;;21.80;98763.00;;;;5038521;28;20052;-62
2023/08/12 03:27:58;;;;;;;8.65;7.25;;;;;21.80;98773.00;;;;5055235;28;20059;-62
2023/08/12 03:30:26;;;;;;;11.40;7.45;;;;;21.80;98759.00;;;;5054608;28;20079;-62
2023/08/12 03:32:54;;;;;;;11.27;6.95;;;;;21.90;98759.00;;;;5038479;28;20135;-62
2023/08/12 03:35:21;;;;;;;9.48;7.38;;;;;22.00;98758.00;;;;5054695;28;20048;-62
2023/08/12 03:37:48;;;;;;;7.80;7.00;;;;;22.10;98756.00;;;;5054737;28;20127;-62
2023/08/12 03:40:14;;;;;;;9.27;6.75;;;;;22.10;98756.00;;;;5054847;28;20436;-62
2023/08/12 03:42:41;;;;;;;13.88;9.90;;;;;22.10;98754.00;;;;5054715;28;20579;-62
2023/08/12 03:45:09;;;;;;;11.65;7.47;;;;;22.10;98755.00;;;;5054446;28;20143;-62
2023/08/12 03:47:35;;;;;;;8.50;6.13;;;;;22.00;98752.00;;;;5054735;28;20040;-62
2023/08/12 03:50:03;;;;;;;8.75;7.63;;;;;22.00;98755.00;;;;5054276;28;20106;-62
2023/08/12 03:52:31;;;;;;;7.82;6.63;;;;;22.00;98750.00;;;;5054630;28;20053;-62
2023/08/12 03:54:58;;;;;;;8.65;6.72;;;;;22.00;98741.00;;;;5054435;28;20057;-62
2023/08/12 03:57:25;;;;;;;8.48;7.20;;;;;22.10;98744.00;;;;5038127;28;20040;-62
2023/08/12 03:59:51;;;;;;;8.55;6.70;;;;;22.20;98755.00;;;;5054232;28;20040;-62
2023/08/12 04:02:18;;;;;;;8.63;7.05;;;;;22.30;98749.00;;;;5054391;28;20208;-62
2023/08/12 04:04:44;;;;;;;8.27;6.75;;;;;22.20;98755.00;;;;5072272;28;20744;-62
2023/08/12 04:07:11;;;;;;;8.32;6.25;;;;;22.30;98753.00;;;;5054305;28;20087;-62
2023/08/12 04:09:38;;;;;;;9.40;7.53;;;;;22.20;98750.00;;;;5054493;28;20524;-62
2023/08/12 04:12:05;;;;;;;8.20;6.82;;;;;22.10;98749.00;;;;5072652;28;20040;-62
2023/08/12 04:14:31;;;;;;;9.27;7.75;;;;;21.90;98749.00;;;;5054481;28;20044;-62
2023/08/12 04:16:58;;;;;;;11.55;7.70;;;;;21.80;98751.00;;;;5072490;28;20048;-62
2023/08/12 04:19:25;;;;;;;10.75;8.25;;;;;21.80;98755.00;;;;5054046;28;20078;-62
2023/08/12 04:21:51;;;;;;;11.57;7.63;;;;;21.70;98742.00;;;;5054805;28;20136;-62
2023/08/12 04:24:18;;;;;;;14.40;7.68;;;;;21.70;98741.00;;;;5073094;28;20412;-62
2023/08/12 04:26:46;;;;;;;10.75;7.47;;;;;21.60;98735.00;;;;5054735;28;20053;-62
2023/08/12 04:29:12;;;;;;;8.98;7.38;;;;;21.60;98724.00;;;;5072511;28;20060;-62
2023/08/12 04:31:41;;;;;;;9.75;7.20;;;;;21.60;98721.00;;;;5054889;28;20128;-62
2023/08/12 04:34:08;;;;;;;9.40;7.85;;;;;21.60;98720.00;;;;5055170;28;20052;-62
2023/08/12 04:36:34;;;;;;;9.32;7.50;;;;;21.50;98722.00;;;;5038387;28;20445;-62
2023/08/12 04:39:04;;;;;;;8.07;6.90;;;;;21.40;98717.00;;;;5054786;28;20049;-62
2023/08/12 04:41:33;;;;;;;8.35;7.40;;;;;21.30;98715.00;;;;5054476;28;20040;-62
2023/08/12 04:44:01;;;;;;;9.15;7.07;;;;;21.30;98721.00;;;;5055106;28;20053;-62
2023/08/12 04:46:30;;;;;;;8.00;7.20;;;;;21.30;98715.00;;;;5055295;28;20131;-62
2023/08/12 04:48:57;;;;;;;8.05;7.18;;;;;21.20;98715.00;;;;5054951;28;20409;-62
2023/08/12 04:51:23;;;;;;;7.72;7.00;;;;;21.20;98718.00;;;;5055561;28;20055;-62
2023/08/12 04:53:50;;;;;;;7.40;6.68;;;;;21.20;98710.00;;;;5073022;28;20448;-62
2023/08/12 04:56:17;;;;;;;7.75;6.95;;;;;21.20;98705.00;;;;5072735;28;20463;-62
2023/08/12 04:58:44;;;;;;;7.60;6.80;;;;;21.20;98704.00;;;;5075896;28;20127;-62
2023/08/12 05:01:11;;;;;;;8.75;6.60;;;;;21.30;98695.00;;;;5058873;28;20432;-63
2023/08/12 05:03:38;;;;;;;7.68;6.88;;;;;21.40;98696.00;;;;5076917;28;20045;-62
2023/08/12 05:06:04;;;;;;;7.30;6.10;;;;;21.40;98691.00;;;;5077802;28;20072;-62
2023/08/12 05:08:32;;;;;;;10.38;7.45;;;;;21.50;98702.00;;;;5059495;28;20052;-62
2023/08/12 05:10:59;;;;;;;10.18;7.65;;;;;21.70;98696.00;;;;5043622;28;20124;-62
2023/08/12 05:13:25;;;;;;;8.05;7.05;;;;;21.80;98698.00;;;;5060597;28;20097;-63
2023/08/12 05:15:52;;;;;;;7.25;6.55;;;;;22.00;98707.00;;;;5077021;28;20044;-63
2023/08/12 05:18:19;;;;;;;8.18;6.53;;;;;22.20;98710.00;;;;5043242;28;20078;-62
2023/08/12 05:20:45;;;;;;;8.10;6.85;;;;;22.30;98700.00;;;;5058631;28;20156;-63
2023/08/12 05:23:13;;;;;;;6.65;5.95;;;;;22.30;98698.00;;;;5059627;28;20460;-62
2023/08/12 05:25:41;;;;;;;8.63;6.45;;;;;22.30;98696.00;;;;5059653;28;20432;-63
2023/08/12 05:28:08;;;;;;;9.40;6.90;;;;;22.30;98701.00;;;;5077670;28;20127;-63
2023/08/12 05:30:35;;;;;;;7.88;7.07;;;;;22.40;98706.00;;;;5078147;28;20044;-62
2023/08/12 05:33:02;;;;;;;9.15;6.72;;;;;22.50;98705.00;;;;5060075;28;20106;-63
2023/08/12 05:35:33;;;;;;;8.63;6.72;;;;;22.60;98692.00;;;;5077567;28;20128;-62
2023/08/12 05:37:59;;;;;;;8.38;6.28;;;;;22.50;98695.00;;;;5078380;28;20076;-63
2023/08/12 05:40:26;;;;;;;10.75;7.10;;;;;22.50;98694.00;;;;5077504;28;20103;-62
2023/08/12 05:42:53;;;;;;;8.00;6.53;;;;;22.40;98691.00;;;;5077072;28;20039;-62
2023/08/12 05:45:20;;;;;;;7.10;6.25;;;;;22.40;98696.00;;;;5042499;28;20596;-63
2023/08/12 05:47:46;;;;;;;8.27;5.97;;;;;22.40;98695.00;;;;5060035;28;20222;-62
2023/08/12 05:50:13;;;;;;;6.43;5.75;;;;;22.40;98706.00;;;;5077486;28;20047;-62
2023/08/12 05:52:40;;;;;;;6.53;5.93;;;;;22.60;98712.00;;;;5077730;28;20044;-62
2023/08/12 05:55:06;;;;;;;7.45;5.47;;;;;22.80;98719.00;;;;5077713;28;20040;-62
2023/08/12 05:57:33;;;;;;;8.55;6.95;;;;;22.80;98718.00;;;;5077559;28;20159;-62
2023/08/12 06:00:00;;;;;;;9.80;6.60;;;;;22.70;98717.00;;;;5077197;28;20104;-62
2023/08/12 06:02:37;;;;;;;8.63;7.13;;;;;22.60;98710.00;;;;5060862;28;20040;-62
2023/08/12 06:05:04;;;;;;;10.82;7.10;;;;;22.50;98717.00;;;;5075541;28;20077;-62
2023/08/12 06:07:30;;;;;;;10.07;6.78;;;;;22.60;98721.00;;;;5076135;28;20475;-63
2023/08/12 06:09:57;;;;;;;10.70;6.82;;;;;22.70;98718.00;;;;5074391;28;20059;-63
2023/08/12 06:12:23;;;;;;;6.82;6.13;;;;;22.80;98719.00;;;;5057871;28;20047;-63
2023/08/12 06:14:50;;;;;;;10.82;6.57;;;;;22.80;98724.00;;;;5075331;28;20158;-62
2023/08/12 06:17:16;;;;;;;8.98;6.28;;;;;23.00;98726.00;;;;5057948;28;20131;-62
2023/08/12 06:19:43;;;;;;;7.47;6.68;;;;;23.20;98723.00;;;;5041034;28;20045;-64
2023/08/12 06:22:09;;;;;;;8.15;6.63;;;;;23.40;98720.00;;;;5075135;28;20134;-62
2023/08/12 06:24:37;;;;;;;7.45;6.45;;;;;23.60;98719.00;;;;5075424;28;20132;-63
2023/08/12 06:27:03;;;;;;;7.70;6.82;;;;;23.70;98720.00;;;;5057089;28;20045;-62
2023/08/12 06:29:30;;;;;;;6.85;6.07;;;;;23.90;98717.00;;;;5057470;28;20056;-63
2023/08/12 06:31:57;;;;;;;7.35;6.50;;;;;24.10;98724.00;;;;5075154;28;20044;-63
2023/08/12 06:34:23;;;;;;;9.07;6.97;;;;;24.20;98722.00;;;;5075599;28;20048;-63
2023/08/12 06:36:50;;;;;;;7.50;6.38;;;;;24.20;98726.00;;;;5057411;28;20503;-63
2023/08/12 06:39:16;;;;;;;10.23;6.80;;;;;24.30;98721.00;;;;5075294;28;20497;-63
2023/08/12 06:41:43;;;;;;;7.93;6.93;;;;;24.20;98720.00;;;;5075650;28;20047;-63
2023/08/12 06:44:11;;;;;;;8.52;6.68;;;;;24.10;98720.00;;;;5057087;28;20497;-63
2023/08/12 06:46:37;;;;;;;11.02;6.97;;;;;24.10;98714.00;;;;5056999;28;20052;-63
2023/08/12 06:49:04;;;;;;;10.00;6.45;;;;;24.10;98713.00;;;;5057101;28;20079;-63
2023/08/12 06:51:30;;;;;;;7.85;7.05;;;;;24.10;98712.00;;;;5074783;28;20115;-63
2023/08/12 06:53:57;;;;;;;7.30;6.53;;;;;24.20;98713.00;;;;5056787;28;20044;-63
2023/08/12 06:56:24;;;;;;;8.18;7.35;;;;;24.30;98722.00;;;;5056596;28;20521;-63
2023/08/12 06:58:50;;;;;;;8.68;7.78;;;;;24.40;98726.00;;;;5074537;28;20127;-63
2023/08/12 07:01:17;;;;;;;8.88;6.38;;;;;24.40;98723.00;;;;5073379;28;20054;-63
2023/08/12 07:03:43;;;;;;;8.00;7.10;;;;;24.40;98726.00;;;;5073486;28;20041;-63
2023/08/12 07:06:10;;;;;;;7.95;7.15;;;;;24.40;98729.00;;;;5073544;28;20471;-63
2023/08/12 07:08:36;;;;;;;8.93;7.28;;;;;24.40;98729.00;;;;5056072;28;20098;-63
2023/08/12 07:11:04;;;;;;;8.20;7.18;;;;;24.50;98739.00;;;;5073652;28;20046;-63
2023/08/12 07:13:31;;;;;;;7.93;6.60;;;;;24.60;98729.00;;;;5073419;28;20043;-63
2023/08/12 07:15:57;;;;;;;12.45;7.05;;;;;24.70;98738.00;;;;5073349;28;20386;-63
2023/08/12 07:18:24;;;;;;;9.20;6.63;;;;;24.90;98738.00;;;;5073485;28;20045;-63
2023/08/12 07:20:50;;;;;;;8.18;6.63;;;;;24.90;98732.00;;;;5072886;28;20048;-63
2023/08/12 07:23:17;;;;;;;7.47;6.60;;;;;25.00;98725.00;;;;5073596;28;20236;-63
2023/08/12 07:25:46;;;;;;;7.40;6.43;;;;;25.10;98734.00;;;;5073184;28;20051;-63
2023/08/12 07:28:12;;;;;;;9.13;7.07;;;;;25.40;98731.00;;;;5072740;28;20118;-63
2023/08/12 07:30:39;;;;;;;11.70;7.75;;;;;25.60;98743.00;;;;5055030;28;20130;-63
2023/08/12 07:33:06;;;;;;;9.13;7.68;;;;;25.70;98735.00;;;;5072990;28;20124;-63
2023/08/12 07:35:33;;;;;;;6.75;6.07;;;;;25.70;98739.00;;;;5072681;28;20059;-63
2023/08/12 07:38:00;;;;;;;7.60;6.90;;;;;25.70;98756.00;;;;5055471;28;20135;-63
2023/08/12 07:40:26;;;;;;;9.68;7.35;;;;;25.60;98755.00;;;;5072993;28;20047;-62
2023/08/12 07:42:53;;;;;;;8.52;7.30;;;;;25.50;98755.00;;;;5054871;28;20051;-62
2023/08/12 07:45:19;;;;;;;8.60;7.70;;;;;25.30;98752.00;;;;5072881;28;20050;-62
2023/08/12 07:47:46;;;;;;;7.72;7.03;;;;;25.10;98756.00;;;;5054975;28;20044;-62
2023/08/12 07:50:12;;;;;;;8.70;7.82;;;;;25.00;98764.00;;;;5072977;28;20072;-62
2023/08/12 07:52:39;;;;;;;9.48;7.57;;;;;25.00;98759.00;;;;5073114;28;20397;-62
2023/08/12 07:55:06;;;;;;;9.52;8.43;;;;;25.00;98760.00;;;;5055592;28;20049;-62
2023/08/12 07:57:32;;;;;;;7.80;7.10;;;;;25.10;98762.00;;;;5055620;28;20139;-62
2023/08/12 07:59:59;;;;;;;9.02;8.13;;;;;25.10;98752.00;;;;5055328;28;20048;-62
2023/08/12 08:02:26;;;;;;;9.00;8.10;;;;;25.20;98745.00;;;;5073429;28;20055;-62
2023/08/12 08:04:52;;;;;;;9.20;8.30;;;;;25.20;98743.00;;;;5072881;28;20068;-62
2023/08/12 08:07:19;;;;;;;9.60;8.70;;;;;25.20;98741.00;;;;5055115;28;20080;-62
2023/08/12 08:09:46;;;;;;;8.98;7.80;;;;;25.50;98723.00;;;;5073468;28;20132;-62
2023/08/12 08:12:13;;;;;;;13.25;9.43;;;;;25.50;98735.00;;;;5055901;28;20044;-62
2023/08/12 08:14:40;;;;;;;18.67;13.23;;;;;25.60;98721.00;;;;5073954;28;20040;-62
2023/08/12 08:17:07;;;;;;;9.93;8.82;;;;;25.80;98712.00;;;;5075484;28;20055;-62
2023/08/12 08:19:33;;;;;;;8.65;7.75;;;;;26.00;98723.00;;;;5073542;28;20048;-62
2023/08/12 08:22:00;;;;;;;9.20;8.20;;;;;26.20;98721.00;;;;5039518;28;20130;-62
2023/08/12 08:24:27;;;;;;;10.10;8.70;;;;;26.40;98723.00;;;;5075456;28;20077;-63
2023/08/12 08:26:53;;;;;;;8.85;7.20;;;;;26.40;98715.00;;;;5076523;28;20044;-63
2023/08/12 08:29:21;;;;;;;8.75;7.63;;;;;26.50;98729.00;;;;5076934;28;20119;-63
2023/08/12 08:31:47;;;;;;;8.55;7.75;;;;;26.50;98729.00;;;;5076248;28;20115;-63
2023/08/12 08:34:14;;;;;;;9.57;8.45;;;;;26.60;98726.00;;;;5074200;28;20040;-63
2023/08/12 08:36:41;;;;;;;9.27;7.38;;;;;26.60;98726.00;;;;5055888;28;20085;-62
2023/08/12 08:39:08;;;;;;;8.18;7.38;;;;;26.90;98717.00;;;;5076366;28;20052;-62
2023/08/12 08:41:38;;;;;;;10.68;7.47;;;;;27.00;98710.00;;;;5058251;28;20491;-61
2023/08/12 08:44:07;;;;;;;8.48;6.60;;;;;27.00;98704.00;;;;5075638;28;20116;-61
2023/08/12 08:46:34;;;;;;;9.10;6.07;;;;;27.00;98710.00;;;;5074679;28;20067;-62
2023/08/12 08:49:02;;;;;;;6.80;5.53;;;;;27.10;98707.00;;;;5058592;28;20048;-62
2023/08/12 08:51:32;;;;;;;7.28;5.85;;;;;27.30;98713.00;;;;5076744;28;20067;-62
2023/08/12 08:53:59;;;;;;;7.47;6.53;;;;;27.30;98707.00;;;;5059928;28;20403;-62
2023/08/12 08:56:31;;;;;;;9.75;5.97;;;;;27.40;98718.00;;;;5077355;28;20083;-62
2023/08/12 08:58:58;;;;;;;7.18;6.20;;;;;27.50;98713.00;;;;5077413;28;20079;-62
2023/08/12 09:01:28;;;;;;;7.68;6.13;;;;;27.80;98718.00;;;;5059031;28;20552;-62
2023/08/12 09:03:56;;;;;;;7.85;6.15;;;;;27.90;98717.00;;;;5076819;28;20131;-62
2023/08/12 09:06:25;;;;;;;11.93;6.85;;;;;27.90;98727.00;;;;5076555;28;20490;-61
2023/08/12 09:08:52;;;;;;;7.47;6.55;;;;;27.90;98721.00;;;;5059472;28;20051;-62
2023/08/12 09:11:18;;;;;;;6.68;6.07;;;;;28.00;98726.00;;;;5077872;28;20049;-62
2023/08/12 09:13:46;;;;;;;6.60;5.85;;;;;28.20;98741.00;;;;5043652;28;20052;-62
2023/08/12 09:16:13;;;;;;;6.90;5.60;;;;;28.20;98750.00;;;;5059937;28;20049;-61
2023/08/12 09:18:42;;;;;;;6.05;5.45;;;;;28.00;98761.00;;;;5077659;28;20049;-62
2023/08/12 09:21:09;;;;;;;6.15;5.50;;;;;27.90;98760.00;;;;5075754;28;20100;-62
2023/08/12 09:23:38;;;;;;;5.10;4.63;;;;;27.70;98761.00;;;;5075594;28;20041;-62
2023/08/12 09:26:14;;;;;;;7.40;5.50;;;;;27.40;98774.00;;;;5076130;28;20049;-62
2023/08/12 09:28:45;;;;;;;6.65;5.38;;;;;27.10;98781.00;;;;5075616;28;20064;-61
2023/08/12 09:31:25;;;;;;;6.68;5.38;;;;;26.80;98776.00;;;;5057098;28;20142;-62
2023/08/12 09:33:52;;;;;;;6.05;5.35;;;;;26.60;98774.00;;;;5075385;28;20044;-61
2023/08/12 09:36:22;;;;;;;8.27;5.28;;;;;26.50;98780.00;;;;5057239;28;20059;-61
2023/08/12 09:38:49;;;;;;;7.00;5.18;;;;;26.50;98780.00;;;;5055952;28;20052;-61
2023/08/12 09:41:15;;;;;;;5.72;4.93;;;;;26.60;98776.00;;;;5056471;28;20041;-61
2023/08/12 09:43:42;;;;;;;7.15;5.13;;;;;26.60;98783.00;;;;5076141;28;20055;-61
2023/08/12 09:46:15;;;;;;;5.93;4.97;;;;;26.40;98795.00;;;;5060650;28;20044;-61
2023/08/12 09:48:43;;;;;;;8.40;5.40;;;;;26.00;98795.00;;;;5061723;28;20147;-61
2023/08/12 09:51:10;;;;;;;5.43;4.75;;;;;25.70;98800.00;;;;5080080;28;20036;-61
2023/08/12 09:53:37;;;;;;;6.30;5.25;;;;;25.50;98795.00;;;;5062832;28;20041;-61
2023/08/12 09:56:11;;;;;;;7.00;5.70;;;;;25.50;98791.00;;;;5081007;28;20053;-61
2023/08/12 09:58:39;;;;;;;6.18;5.03;;;;;25.40;98793.00;;;;5046829;28;20120;-61
2023/08/12 10:01:08;;;;;;;7.38;5.78;;;;;25.40;98794.00;;;;5046118;28;20072;-61
2023/08/12 10:03:35;;;;;;;6.00;5.35;;;;;25.40;98773.00;;;;5080496;28;20076;-61
2023/08/12 10:06:03;;;;;;;6.63;5.63;;;;;25.40;98761.00;;;;5062495;28;20052;-61
2023/08/12 10:08:29;;;;;;;6.03;5.32;;;;;25.40;98785.00;;;;5080720;28;20044;-61
2023/08/12 10:10:56;;;;;;;9.52;6.13;;;;;25.20;98809.00;;;;5079956;28;20132;-61
2023/08/12 10:13:40;;;;;;;7.75;5.50;;;;;25.00;98763.00;;;;5079739;28;20044;-61
2023/08/12 10:16:09;;;;;;;5.68;4.43;;;;;24.90;98754.00;;;;5062118;28;20072;-61
2023/08/12 10:18:38;;;;;;;7.15;5.10;;;;;25.00;98771.00;;;;5079390;28;20063;-61
2023/08/12 10:21:08;;;;;;;6.30;4.75;;;;;25.00;98772.00;;;;5079499;28;20394;-62
2023/08/12 10:23:35;;;;;;;7.38;4.50;;;;;24.90;98797.00;;;;5062541;28;20504;-61
2023/08/12 10:26:05;;;;;;;4.03;3.63;;;;;24.70;98780.00;;;;5080288;28;20041;-62
2023/08/12 10:28:36;;;;;;;3.95;3.35;;;;;24.50;98775.00;;;;5060625;28;20052;-62
2023/08/12 10:31:06;;;;;;;3.75;3.28;;;;;24.50;98791.00;;;;5059524;28;20062;-62
2023/08/12 10:33:40;;;;;;;7.25;3.92;;;;;24.30;98808.00;;;;5060578;28;20447;-62
2023/08/12 10:36:08;;;;;;;4.53;3.60;;;;;24.10;98810.00;;;;5059818;28;20058;-62
2023/08/12 10:38:35;;;;;;;5.47;3.80;;;;;24.00;98810.00;;;;5060828;28;20050;-62
2023/08/12 10:41:21;;;;;;;5.28;3.53;;;;;23.90;98820.00;;;;5077854;28;20056;-62
2023/08/12 10:43:55;;;;;;;4.78;4.03;;;;;23.80;98794.00;;;;5058963;28;20041;-62
2023/08/12 10:46:35;;;;;;;5.75;4.15;;;;;23.70;98785.00;;;;5056232;28;20079;-62
2023/08/12 10:49:04;;;;;;;4.68;3.67;;;;;23.80;98769.00;;;;5056548;28;20515;-62
2023/08/12 10:51:50;;;;;;;6.07;3.97;;;;;23.90;98768.00;;;;5073834;28;20041;-62
2023/08/12 10:54:30;;;;;;;6.07;4.00;;;;;24.00;98763.00;;;;5057495;28;20044;-62
2023/08/12 10:57:14;;;;;;;4.10;2.95;;;;;24.10;98751.00;;;;5080094;28;20059;-62
2023/08/12 10:59:44;;;;;;;5.95;3.47;;;;;24.30;98734.00;;;;5080497;28;20112;-61
2023/08/12 11:02:19;;;;;;;6.45;4.10;;;;;24.80;98726.00;;;;5046498;28;20052;-62
2023/08/12 11:04:54;;;;;;;43.78;35.80;;;;;24.90;98733.00;;;;5078653;28;20558;-62
2023/08/12 11:07:28;;;;;;;12.45;7.63;;;;;25.10;98733.00;;;;5074023;28;20451;-62
2023/08/12 11:10:00;;;;;;;25.55;19.75;;;;;25.10;98716.00;;;;5073365;28;20139;-62
2023/08/12 11:12:32;;;;;;;92.80;72.97;;;;;25.20;98702.00;;;;5055835;28;20041;-62
2023/08/12 11:15:00;;;;;;;60.15;44.10;;;;;25.30;98685.00;;;;5073996;28;20036;-63
2023/08/12 11:17:41;;;;;;;58.80;45.33;;;;;25.70;98665.00;;;;5074175;28;20040;-62
2023/08/12 11:20:10;;;;;;;77.07;56.65;;;;;25.80;98674.00;;;;5073429;28;20052;-63
2023/08/12 11:22:39;;;;;;;39.38;31.65;;;;;25.90;98685.00;;;;5056220;28;20040;-63
2023/08/12 11:25:11;;;;;;;23.95;19.70;;;;;26.20;98689.00;;;;5074246;28;20123;-63
2023/08/12 11:27:43;;;;;;;7.63;5.53;;;;;26.50;98701.00;;;;5056195;28;20409;-62
2023/08/12 11:30:12;;;;;;;26.38;21.23;;;;;26.60;98703.00;;;;5072820;28;20627;-62
2023/08/12 11:32:39;;;;;;;6.60;5.45;;;;;26.80;98708.00;;;;5056092;28;20469;-64
2023/08/12 11:35:08;;;;;;;12.80;10.35;;;;;26.80;98700.00;;;;5055970;28;20051;-64
2023/08/12 11:37:36;;;;;;;4.00;3.25;;;;;26.80;98697.00;;;;5073638;28;20098;-64
2023/08/12 11:40:05;;;;;;;4.47;3.40;;;;;27.10;98676.00;;;;5073189;28;20048;-65
2023/08/12 11:42:31;;;;;;;6.03;5.43;;;;;27.30;98677.00;;;;5073072;28;20048;-63
2023/08/12 11:44:58;;;;;;;9.27;7.72;;;;;27.60;98677.00;;;;5072513;28;20040;-63
2023/08/12 11:47:25;;;;;;;6.65;5.97;;;;;27.80;98692.00;;;;5072635;28;20063;-63
2023/08/12 11:49:53;;;;;;;3.72;2.53;;;;;27.90;98695.00;;;;5072391;28;20052;-66
2023/08/12 11:52:20;;;;;;;3.40;3.10;;;;;27.90;98699.00;;;;5055547;28;20547;-63
2023/08/12 11:54:51;;;;;;;3.85;2.53;;;;;27.90;98697.00;;;;5055358;28;20473;-64
2023/08/12 11:57:18;;;;;;;2.65;2.42;;;;;27.90;98704.00;;;;5038248;28;20044;-65
2023/08/12 11:59:45;;;;;;;3.42;3.10;;;;;28.00;98701.00;;;;5054610;28;20045;-62
2023/08/12 12:02:12;;;;;;;3.70;2.63;;;;;28.20;98704.00;;;;5038367;28;20493;-63
2023/08/12 12:04:43;;;;;;;3.72;2.40;;;;;28.30;98701.00;;;;5038411;28;20064;-63
2023/08/12 12:07:18;;;;;;;4.50;2.65;;;;;28.30;98700.00;;;;5037166;28;20045;-64
2023/08/12 12:09:45;;;;;;;3.35;2.42;;;;;28.20;98711.00;;;;5054983;28;20036;-63
2023/08/12 12:12:12;;;;;;;3.63;2.60;;;;;28.10;98700.00;;;;5072814;28;20131;-63
2023/08/12 12:14:39;;;;;;;3.42;2.15;;;;;28.20;98697.00;;;;5038155;28;20040;-64
2023/08/12 12:17:10;;;;;;;2.40;2.20;;;;;28.20;98706.00;;;;5054230;28;20045;-63
2023/08/12 12:19:39;;;;;;;2.80;2.60;;;;;28.20;98710.00;;;;5054640;28;20121;-63